createdAt,value
2023-01-29T00:01:01.782Z,67.97
2023-01-29T00:06:03.687Z,69.24
2023-01-29T00:11:04.930Z,68.32
2023-01-29T00:16:06.300Z,69.89
2023-01-29T00:21:07.570Z,70.14
2023-01-29T00:26:08.839Z,71.18
2023-01-29T00:31:10.238Z,69.20
2023-01-29T00:36:11.557Z,69.51
2023-01-29T00:41:31.667Z,67.56
2023-01-29T00:46:32.913Z,67.68
2023-01-29T00:51:34.220Z,69.13
2023-01-29T00:56:35.446Z,69.88
2023-01-29T01:01:55.586Z,68.33
2023-01-29T01:06:56.876Z,67.53
2023-01-29T01:11:58.192Z,67.18
2023-01-29T01:16:59.605Z,67.70
2023-01-29T01:22:00.842Z,68.45
2023-01-29T01:27:02.049Z,66.73
2023-01-29T01:32:03.360Z,67.64
2023-01-29T01:37:05.374Z,68.51
2023-01-29T01:42:06.585Z,68.10
2023-01-29T01:47:07.793Z,67.16
2023-01-29T01:52:08.992Z,67.62
2023-01-29T01:57:16.135Z,65.86
2023-01-29T02:02:36.184Z,66.30
2023-01-29T02:07:55.953Z,66.96
2023-01-29T02:12:57.154Z,67.03
2023-01-29T02:17:58.350Z,66.98
2023-01-29T02:23:02.646Z,66.39
2023-01-29T02:28:04.879Z,68.59
2023-01-29T02:33:09.296Z,68.81
2023-01-29T02:38:10.636Z,67.55
2023-01-29T02:43:11.909Z,66.13
2023-01-29T02:48:13.177Z,67.24
2023-01-29T02:53:14.422Z,65.67
2023-01-29T02:58:15.643Z,66.00
2023-01-29T03:03:16.876Z,65.74
2023-01-29T03:08:18.078Z,65.85
2023-01-29T03:13:19.485Z,64.35
2023-01-29T03:18:20.751Z,65.01
2023-01-29T03:23:40.943Z,64.87
2023-01-29T03:29:00.986Z,65.65
2023-01-29T03:34:03.879Z,64.04
2023-01-29T03:39:05.344Z,63.89
2023-01-29T03:44:06.594Z,64.83
2023-01-29T03:49:08.379Z,65.46
2023-01-29T03:54:09.853Z,64.78
2023-01-29T03:59:11.974Z,64.75
2023-01-29T04:04:13.282Z,63.86
2023-01-29T04:09:14.557Z,64.81
2023-01-29T04:14:15.802Z,64.82
2023-01-29T04:19:17.095Z,64.46
2023-01-29T04:24:18.390Z,66.98
2023-01-29T04:29:19.667Z,67.14
2023-01-29T04:34:20.924Z,66.93
2023-01-29T04:39:22.323Z,66.42
2023-01-29T04:44:23.867Z,66.40
2023-01-29T04:49:25.140Z,66.07
2023-01-29T04:54:26.445Z,66.90
2023-01-29T04:59:27.698Z,66.68
2023-01-29T05:04:28.944Z,66.46
2023-01-29T05:09:30.162Z,66.78
2023-01-29T05:14:31.367Z,67.34
2023-01-29T05:19:32.591Z,67.20
2023-01-29T05:24:33.834Z,65.62
2023-01-29T05:29:35.114Z,65.25
2023-01-29T05:34:36.355Z,65.81
2023-01-29T05:39:37.571Z,65.42
2023-01-29T05:44:38.804Z,67.01
2023-01-29T05:49:40.045Z,66.41
2023-01-29T05:54:41.363Z,68.10
2023-01-29T05:59:42.578Z,67.31
2023-01-29T06:04:43.838Z,67.72
2023-01-29T06:09:45.104Z,67.55
2023-01-29T06:14:46.389Z,66.89
2023-01-29T06:19:47.614Z,66.38
2023-01-29T06:24:48.912Z,66.35
2023-01-29T06:29:50.333Z,67.33
2023-01-29T06:34:53.135Z,65.48
2023-01-29T06:39:54.381Z,65.99
2023-01-29T06:44:55.693Z,65.88
2023-01-29T06:49:56.947Z,66.29
2023-01-29T06:54:58.167Z,66.87
2023-01-29T06:59:59.642Z,67.43
2023-01-29T07:05:00.903Z,67.44
2023-01-29T07:10:02.154Z,66.89
2023-01-29T07:15:03.899Z,66.18
2023-01-29T07:20:05.984Z,66.78
2023-01-29T07:25:07.247Z,72.81
2023-01-29T07:30:08.479Z,66.26
2023-01-29T07:35:09.739Z,70.02
2023-01-29T07:40:11.363Z,65.48
2023-01-29T07:45:12.630Z,62.62
2023-01-29T07:50:14.041Z,64.64
2023-01-29T07:55:15.365Z,65.26
2023-01-29T08:00:16.871Z,65.09
2023-01-29T08:05:18.271Z,65.47
2023-01-29T08:10:19.756Z,65.84
2023-01-29T08:15:21.222Z,66.21
2023-01-29T08:20:22.432Z,65.94
2023-01-29T08:25:23.946Z,66.43
2023-01-29T08:30:25.375Z,66.57
2023-01-29T08:35:26.680Z,65.92
2023-01-29T08:40:28.093Z,66.16
2023-01-29T08:45:30.084Z,65.09
2023-01-29T08:50:32.443Z,65.39
2023-01-29T08:55:33.763Z,64.67
2023-01-29T09:00:34.976Z,66.61
2023-01-29T09:05:36.205Z,67.20
2023-01-29T09:10:37.537Z,66.40
2023-01-29T09:15:38.771Z,66.70
2023-01-29T09:20:40.092Z,67.37
2023-01-29T09:25:41.344Z,65.67
2023-01-29T09:30:42.702Z,66.05
2023-01-29T09:35:44.232Z,66.23
2023-01-29T09:40:45.483Z,66.05
2023-01-29T09:45:46.797Z,64.81
2023-01-29T09:50:48.124Z,65.66
2023-01-29T09:55:49.741Z,65.97
2023-01-29T10:00:50.975Z,64.50
2023-01-29T10:05:52.212Z,64.82
2023-01-29T10:10:53.450Z,64.31
2023-01-29T10:15:54.725Z,63.17
2023-01-29T10:20:55.999Z,63.07
2023-01-29T10:25:57.298Z,62.89
2023-01-29T10:30:58.735Z,62.61
2023-01-29T10:35:59.996Z,64.80
2023-01-29T10:41:01.189Z,64.82
2023-01-29T10:46:02.412Z,63.89
2023-01-29T10:51:03.706Z,63.12
2023-01-29T10:56:14.163Z,61.62
2023-01-29T11:01:22.431Z,62.13
2023-01-29T11:06:24.024Z,61.57
2023-01-29T11:11:25.308Z,61.73
2023-01-29T11:16:26.607Z,60.47
2023-01-29T11:21:27.884Z,60.44
2023-01-29T11:26:29.169Z,59.61
2023-01-29T11:31:30.549Z,61.49
2023-01-29T11:36:35.020Z,62.86
2023-01-29T11:41:36.389Z,60.34
2023-01-29T11:46:37.804Z,60.13
2023-01-29T11:51:39.139Z,62.27
2023-01-29T11:56:40.463Z,61.83
2023-01-29T12:01:42.288Z,60.14
2023-01-29T12:06:43.578Z,61.12
2023-01-29T12:11:45.039Z,60.09
2023-01-29T12:16:46.310Z,60.52
2023-01-29T12:21:47.986Z,59.39
2023-01-29T12:26:49.201Z,60.63
2023-01-29T12:31:50.508Z,58.90
2023-01-29T12:36:54.847Z,60.28
2023-01-29T12:41:56.103Z,59.44
2023-01-29T12:46:57.429Z,59.37
2023-01-29T12:51:59.191Z,60.92
2023-01-29T12:57:00.502Z,60.71
2023-01-29T13:02:01.722Z,61.09
2023-01-29T13:07:02.987Z,61.05
2023-01-29T13:12:04.270Z,60.56
2023-01-29T13:17:05.603Z,60.70
2023-01-29T13:22:06.934Z,58.74
2023-01-29T13:27:08.303Z,58.85
2023-01-29T13:32:10.399Z,60.93
2023-01-29T13:37:11.688Z,59.99
2023-01-29T13:42:13.024Z,60.39
2023-01-29T13:47:14.294Z,67.67
2023-01-29T13:52:15.591Z,59.34
2023-01-29T13:57:17.041Z,59.66
2023-01-29T14:02:18.376Z,61.69
2023-01-29T14:07:19.652Z,62.39
2023-01-29T14:12:20.902Z,62.08
2023-01-29T14:17:22.947Z,60.38
2023-01-29T14:22:24.263Z,61.17
2023-01-29T14:27:25.760Z,60.84
2023-01-29T14:32:27.034Z,60.76
2023-01-29T14:37:28.282Z,61.33
2023-01-29T14:42:29.500Z,61.55
2023-01-29T14:47:30.706Z,61.59
2023-01-29T14:52:31.911Z,61.26
2023-01-29T14:57:33.221Z,61.43
2023-01-29T15:02:37.205Z,62.28
2023-01-29T15:07:38.578Z,62.09
2023-01-29T15:12:39.992Z,62.35
2023-01-29T15:17:41.273Z,62.91
2023-01-29T15:22:42.519Z,62.80
2023-01-29T15:27:43.888Z,63.19
2023-01-29T15:32:45.188Z,63.21
2023-01-29T15:37:46.446Z,64.76
2023-01-29T15:42:48.534Z,64.43
2023-01-29T15:47:49.852Z,65.07
2023-01-29T15:52:51.091Z,63.66
2023-01-29T15:57:52.412Z,62.13
2023-01-29T16:02:53.734Z,62.54
2023-01-29T16:07:55.487Z,63.36
2023-01-29T16:12:56.837Z,63.45
2023-01-29T16:17:58.119Z,62.02
2023-01-29T16:22:59.551Z,62.16
2023-01-29T16:28:01.088Z,62.53
2023-01-29T16:33:02.339Z,63.02
2023-01-29T16:38:03.724Z,63.47
2023-01-29T16:43:04.952Z,63.59
2023-01-29T16:48:06.257Z,63.33
2023-01-29T16:53:07.497Z,62.36
2023-01-29T16:58:08.751Z,63.46
2023-01-29T17:03:10.028Z,63.32
2023-01-29T17:08:11.264Z,63.43
2023-01-29T17:13:12.496Z,65.13
2023-01-29T17:18:13.736Z,65.32
2023-01-29T17:23:15.082Z,64.51
2023-01-29T17:28:16.451Z,63.79
2023-01-29T17:33:17.862Z,64.97
2023-01-29T17:38:25.882Z,64.10
2023-01-29T17:43:27.498Z,62.38
2023-01-29T17:48:28.805Z,61.31
2023-01-29T17:53:43.447Z,60.69
2023-01-29T17:58:45.821Z,62.02
2023-01-29T18:03:47.069Z,62.89
2023-01-29T18:08:48.348Z,63.47
2023-01-29T18:13:49.597Z,63.08
2023-01-29T18:18:50.853Z,62.54
2023-01-29T18:23:52.136Z,62.63
2023-01-29T18:28:53.374Z,62.91
2023-01-29T18:33:54.642Z,62.94
2023-01-29T18:38:55.882Z,63.34
2023-01-29T18:43:57.094Z,63.09
2023-01-29T18:48:58.369Z,62.38
2023-01-29T18:53:59.687Z,62.05
2023-01-29T18:59:00.956Z,62.81
2023-01-29T19:04:02.256Z,62.58
2023-01-29T19:09:03.930Z,63.14
2023-01-29T19:14:05.160Z,63.97
2023-01-29T19:19:06.495Z,64.05
2023-01-29T19:24:10.074Z,64.30
2023-01-29T19:29:11.453Z,64.33
2023-01-29T19:34:12.694Z,64.91
2023-01-29T19:39:14.837Z,64.08
2023-01-29T19:44:16.085Z,64.40
2023-01-29T19:49:17.307Z,64.71
2023-01-29T19:54:19.779Z,64.15
2023-01-29T19:59:20.989Z,64.31
2023-01-29T20:04:22.340Z,65.16
2023-01-29T20:09:23.557Z,65.15
2023-01-29T20:14:24.876Z,65.24
2023-01-29T20:19:26.092Z,64.86
2023-01-29T20:24:29.017Z,65.26
2023-01-29T20:29:30.343Z,64.89
2023-01-29T20:34:31.569Z,66.56
2023-01-29T20:39:32.857Z,66.68
2023-01-29T20:44:34.321Z,65.84
2023-01-29T20:49:35.625Z,65.73
2023-01-29T20:54:37.196Z,66.49
2023-01-29T20:59:38.563Z,66.62
2023-01-29T21:04:39.849Z,65.74
2023-01-29T21:09:41.073Z,66.19
2023-01-29T21:14:42.371Z,66.93
2023-01-29T21:19:44.115Z,67.02
2023-01-29T21:30:02.391Z,69.46
2023-01-29T21:35:03.630Z,71.52
2023-01-29T21:40:04.869Z,71.45
2023-01-29T21:45:06.090Z,71.53
2023-01-29T21:50:07.329Z,71.61
2023-01-29T21:55:08.586Z,72.36
2023-01-29T22:00:09.802Z,72.38
2023-01-29T22:05:19.476Z,70.98
2023-01-29T22:10:21.621Z,71.34
2023-01-29T22:15:23.976Z,70.77
2023-01-29T22:20:30.136Z,70.91
2023-01-29T22:25:32.232Z,70.10
2023-01-29T22:30:33.646Z,70.25
2023-01-29T22:35:35.040Z,70.14
2023-01-29T22:40:41.275Z,70.68
2023-01-29T22:45:42.513Z,70.04
2023-01-29T22:50:52.802Z,70.08
2023-01-29T22:55:54.442Z,70.19
2023-01-29T23:00:55.659Z,70.93
2023-01-29T23:05:56.883Z,70.23
2023-01-29T23:11:13.818Z,70.84
2023-01-29T23:16:15.665Z,71.08
2023-01-29T23:21:17.198Z,72.28
2023-01-29T23:26:37.263Z,72.81
2023-01-29T23:31:38.615Z,73.12
2023-01-29T23:36:39.883Z,73.43
2023-01-29T23:41:41.129Z,73.36
2023-01-29T23:46:42.444Z,74.41
2023-01-29T23:51:44.429Z,74.01
2023-01-29T23:56:45.709Z,74.50
